Terminal Aerodrome Forecast
Issued by NWS Bismarck, ND

Current Version | Previous Version | Text Only | Print | Product List | Glossary On
Versions: 1 2 3 4 5 6 7 8 9 10 11 12 13 14 15 16
674
FTUS43 KBIS 130525
TAFBIS
TAF
KBIS 130525Z 1306/1406 13008KT P6SM BKN140
     FM131300 14012KT P6SM OVC040
     FM131600 15015KT P6SM OVC020
     FM132000 15016KT P6SM -SN OVC015
     FM140000 15012KT 2SM -SN BR OVC008=

USA.gov is the U.S. government's official web portal to all federal, state and local government web resources and services.